createdAt,value
2023-05-19T00:01:16.727Z,1.20
2023-05-19T00:03:53.883Z,1.20
2023-05-19T00:06:25.212Z,1.20
2023-05-19T00:08:56.616Z,1.30
2023-05-19T00:11:23.768Z,1.25
2023-05-19T00:13:51.116Z,1.10
2023-05-19T00:16:17.809Z,1.20
2023-05-19T00:18:44.448Z,1.30
2023-05-19T00:21:11.259Z,1.45
2023-05-19T00:23:37.711Z,1.20
2023-05-19T00:26:04.151Z,1.33
2023-05-19T00:28:30.641Z,1.30
2023-05-19T00:30:57.107Z,1.30
2023-05-19T00:33:23.616Z,1.48
2023-05-19T00:35:50.795Z,1.50
2023-05-19T00:38:17.376Z,1.25
2023-05-19T00:40:43.991Z,1.30
2023-05-19T00:43:10.464Z,1.40
2023-05-19T00:45:37.099Z,1.27
2023-05-19T00:48:04.834Z,1.20
2023-05-19T00:50:31.551Z,1.20
2023-05-19T00:52:58.260Z,1.20
2023-05-19T00:55:26.733Z,1.30
2023-05-19T00:57:53.382Z,1.40
2023-05-19T01:00:20.434Z,1.40
2023-05-19T01:02:47.026Z,1.17
2023-05-19T01:05:13.759Z,1.33
2023-05-19T01:07:41.575Z,1.20
2023-05-19T01:10:08.451Z,1.50
2023-05-19T01:12:35.247Z,1.40
2023-05-19T01:15:02.731Z,1.33
2023-05-19T01:17:34.332Z,1.40
2023-05-19T01:20:06.970Z,1.40
2023-05-19T01:22:42.954Z,1.30
2023-05-19T01:25:20.304Z,1.30
2023-05-19T01:28:09.781Z,1.30
2023-05-19T01:30:41.466Z,1.30
2023-05-19T01:33:11.406Z,1.30
2023-05-19T01:35:42.966Z,1.30
2023-05-19T01:38:10.302Z,1.25
2023-05-19T01:40:37.722Z,1.25
2023-05-19T01:45:32.534Z,1.25
2023-05-19T01:48:00.615Z,1.30
2023-05-19T01:50:27.588Z,1.30
2023-05-19T01:52:54.085Z,1.30
2023-05-19T01:55:22.859Z,1.15
2023-05-19T01:58:16.462Z,1.23
2023-05-19T02:00:46.040Z,1.30
2023-05-19T02:03:24.952Z,1.30
2023-05-19T02:06:14.594Z,1.17
2023-05-19T02:08:56.419Z,1.40
2023-05-19T02:11:28.551Z,1.40
2023-05-19T02:13:56.421Z,1.42
2023-05-19T02:16:25.974Z,1.33
2023-05-19T02:18:54.075Z,1.30
2023-05-19T02:21:20.920Z,1.30
2023-05-19T02:23:47.868Z,1.42
2023-05-19T02:26:14.456Z,1.40
2023-05-19T02:28:40.909Z,1.60
2023-05-19T02:31:08.998Z,1.40
2023-05-19T02:33:36.271Z,1.40
2023-05-19T02:36:03.141Z,1.20
2023-05-19T02:38:29.787Z,1.20
2023-05-19T02:40:57.550Z,1.20
2023-05-19T02:43:24.364Z,1.40
2023-05-19T02:45:50.992Z,1.45
2023-05-19T02:48:17.553Z,1.40
2023-05-19T02:50:44.141Z,1.40
2023-05-19T02:53:10.727Z,1.40
2023-05-19T02:55:37.519Z,1.23
2023-05-19T02:58:04.191Z,1.40
2023-05-19T03:00:30.860Z,1.30
2023-05-19T03:03:02.698Z,1.27
2023-05-19T03:05:30.439Z,1.33
2023-05-19T03:10:23.819Z,1.50
2023-05-19T03:12:50.978Z,1.30
2023-05-19T03:15:18.752Z,1.40
2023-05-19T03:17:45.486Z,1.33
2023-05-19T03:20:12.415Z,1.30
2023-05-19T03:22:39.039Z,1.33
2023-05-19T03:25:05.742Z,1.33
2023-05-19T03:27:32.494Z,1.40
2023-05-19T03:29:58.944Z,1.30
2023-05-19T03:32:25.876Z,1.20
2023-05-19T03:34:52.547Z,1.20
2023-05-19T03:37:19.506Z,1.30
2023-05-19T03:39:46.136Z,1.20
2023-05-19T03:42:13.781Z,1.23
2023-05-19T03:44:40.431Z,1.33
2023-05-19T03:47:07.155Z,1.20
2023-05-19T03:49:42.828Z,1.10
2023-05-19T03:52:09.852Z,1.30
2023-05-19T03:54:55.000Z,1.40
2023-05-19T03:57:22.530Z,1.25
2023-05-19T03:59:49.222Z,1.40
2023-05-19T04:02:16.681Z,1.55
2023-05-19T04:04:43.427Z,1.15
2023-05-19T04:07:10.527Z,1.20
2023-05-19T04:09:37.734Z,1.30
2023-05-19T04:12:04.496Z,1.30
2023-05-19T04:14:31.017Z,1.50
2023-05-19T04:16:57.609Z,1.30
2023-05-19T04:19:24.231Z,1.20
2023-05-19T04:21:51.022Z,1.52
2023-05-19T04:24:17.503Z,1.30
2023-05-19T04:26:47.105Z,1.38
2023-05-19T04:29:18.210Z,1.30
2023-05-19T04:31:45.329Z,1.50
2023-05-19T04:34:12.012Z,1.33
2023-05-19T04:36:39.129Z,1.60
2023-05-19T04:39:09.233Z,1.05
2023-05-19T04:41:35.889Z,1.30
2023-05-19T04:44:05.103Z,1.45
2023-05-19T04:49:01.354Z,1.80
2023-05-19T04:51:31.276Z,1.23
2023-05-19T04:54:00.131Z,1.45
2023-05-19T04:56:27.421Z,1.20
2023-05-19T04:58:54.611Z,1.63
2023-05-19T05:01:26.273Z,1.20
2023-05-19T05:03:59.123Z,1.50
2023-05-19T05:06:26.455Z,1.55
2023-05-19T05:08:53.090Z,1.65
2023-05-19T05:11:20.109Z,1.40
2023-05-19T05:13:46.871Z,1.23
2023-05-19T05:16:14.058Z,1.20
2023-05-19T05:18:43.462Z,1.40
2023-05-19T05:21:11.663Z,1.45
2023-05-19T05:23:38.350Z,1.40
2023-05-19T05:26:10.523Z,1.33
2023-05-19T05:28:37.238Z,1.30
2023-05-19T05:31:03.860Z,1.35
2023-05-19T05:33:31.061Z,1.30
2023-05-19T05:35:57.770Z,1.30
2023-05-19T05:38:25.531Z,1.30
2023-05-19T05:40:53.379Z,1.30
2023-05-19T05:43:19.946Z,1.50
2023-05-19T05:45:52.344Z,1.50
2023-05-19T05:48:21.322Z,1.30
2023-05-19T05:50:49.038Z,1.30
2023-05-19T05:53:20.445Z,1.20
2023-05-19T05:55:49.930Z,1.65
2023-05-19T05:58:17.151Z,1.45
2023-05-19T06:00:43.772Z,1.40
2023-05-19T06:03:11.291Z,1.30
2023-05-19T06:05:38.339Z,1.20
2023-05-19T06:08:05.028Z,1.33
2023-05-19T06:10:32.543Z,1.30
2023-05-19T06:12:59.337Z,1.30
2023-05-19T06:15:26.501Z,1.50
2023-05-19T06:18:00.693Z,1.30
2023-05-19T06:20:27.794Z,1.13
2023-05-19T06:22:54.589Z,1.25
2023-05-19T06:25:22.889Z,1.30
2023-05-19T06:27:49.818Z,1.13
2023-05-19T06:30:16.659Z,1.20
2023-05-19T06:32:58.599Z,1.20
2023-05-19T06:35:25.799Z,1.30
2023-05-19T06:37:53.181Z,1.30
2023-05-19T06:40:20.425Z,1.50
2023-05-19T06:42:47.350Z,1.20
2023-05-19T06:45:16.486Z,1.23
2023-05-19T06:47:44.479Z,1.40
2023-05-19T06:50:11.175Z,1.50
2023-05-19T06:52:41.156Z,1.65
2023-05-19T06:55:07.855Z,1.80
2023-05-19T06:57:37.102Z,1.40
2023-05-19T07:00:05.127Z,1.58
2023-05-19T07:04:58.375Z,1.58
2023-05-19T07:07:26.751Z,1.45
2023-05-19T07:09:55.664Z,1.45
2023-05-19T07:12:22.512Z,1.70
2023-05-19T07:14:49.699Z,1.40
2023-05-19T07:17:16.784Z,1.30
2023-05-19T07:19:45.040Z,1.60
2023-05-19T07:22:11.706Z,1.40
2023-05-19T07:24:38.682Z,1.60
2023-05-19T07:27:05.459Z,1.50
2023-05-19T07:29:32.081Z,1.80
2023-05-19T07:31:58.759Z,1.20
2023-05-19T07:34:27.762Z,1.40
2023-05-19T07:36:54.378Z,1.60
2023-05-19T07:39:21.318Z,1.38
2023-05-19T07:41:52.714Z,1.40
2023-05-19T07:44:19.362Z,1.40
2023-05-19T07:46:46.038Z,1.40
2023-05-19T07:49:12.559Z,1.40
2023-05-19T07:51:39.008Z,1.70
2023-05-19T07:54:05.550Z,1.60
2023-05-19T07:56:32.109Z,1.40
2023-05-19T07:58:58.643Z,1.65
2023-05-19T08:01:25.130Z,1.60
2023-05-19T08:03:51.762Z,1.55
2023-05-19T08:06:18.386Z,1.40
2023-05-19T08:08:44.853Z,1.30
2023-05-19T08:11:11.945Z,1.30
2023-05-19T08:13:38.449Z,1.23
2023-05-19T08:16:05.103Z,1.55
2023-05-19T08:18:31.616Z,1.40
2023-05-19T08:20:58.567Z,1.50
2023-05-19T08:23:25.105Z,1.80
2023-05-19T08:25:52.392Z,1.50
2023-05-19T08:28:18.861Z,1.50
2023-05-19T08:30:45.430Z,1.60
2023-05-19T08:33:12.154Z,1.50
2023-05-19T08:35:40.242Z,1.60
2023-05-19T08:38:06.794Z,1.40
2023-05-19T08:40:33.761Z,1.42
2023-05-19T08:43:00.590Z,1.65
2023-05-19T08:45:27.256Z,1.30
2023-05-19T08:47:54.439Z,1.50
2023-05-19T08:50:27.828Z,1.50
2023-05-19T08:55:27.696Z,1.42
2023-05-19T08:57:54.588Z,1.10
2023-05-19T09:00:21.276Z,1.58
2023-05-19T09:02:59.838Z,1.50
2023-05-19T09:05:33.361Z,1.50
2023-05-19T09:08:02.698Z,1.30
2023-05-19T09:10:29.408Z,1.30
2023-05-19T09:12:56.204Z,1.23
2023-05-19T09:15:25.735Z,1.10
2023-05-19T09:18:03.462Z,1.48
2023-05-19T09:20:30.743Z,1.33
2023-05-19T09:22:59.723Z,1.20
2023-05-19T09:25:26.467Z,1.20
2023-05-19T09:27:54.760Z,1.25
2023-05-19T09:30:21.473Z,1.30
2023-05-19T09:32:48.041Z,1.20
2023-05-19T09:35:17.340Z,1.38
2023-05-19T09:37:44.096Z,1.40
2023-05-19T09:40:13.020Z,1.10
2023-05-19T09:42:40.283Z,1.30
2023-05-19T09:45:07.670Z,1.50
2023-05-19T09:50:00.761Z,1.40
2023-05-19T09:52:27.468Z,1.25
2023-05-19T09:54:56.066Z,1.20
2023-05-19T09:57:28.371Z,1.10
2023-05-19T09:59:56.874Z,1.13
2023-05-19T10:02:26.916Z,1.38
2023-05-19T10:04:55.098Z,1.35
2023-05-19T10:07:24.205Z,1.20
2023-05-19T10:09:51.395Z,1.15
2023-05-19T10:12:18.087Z,1.25
2023-05-19T10:14:45.269Z,1.30
2023-05-19T10:17:12.229Z,1.10
2023-05-19T10:19:38.970Z,1.20
2023-05-19T10:22:05.467Z,1.30
2023-05-19T10:24:32.079Z,1.20
2023-05-19T10:27:01.651Z,1.20
2023-05-19T10:29:33.258Z,1.20
2023-05-19T10:32:02.200Z,1.10
2023-05-19T10:34:37.501Z,1.08
2023-05-19T10:37:09.894Z,1.00
2023-05-19T10:39:36.694Z,1.13
2023-05-19T10:42:16.042Z,1.13
2023-05-19T10:44:47.903Z,1.25
2023-05-19T10:47:14.663Z,1.20
2023-05-19T10:49:41.425Z,1.20
2023-05-19T10:52:26.382Z,1.30
2023-05-19T10:54:54.943Z,1.02
2023-05-19T10:57:33.075Z,1.10
2023-05-19T11:00:06.697Z,1.20
2023-05-19T11:02:43.362Z,1.10
2023-05-19T11:05:18.353Z,0.90
2023-05-19T11:07:54.651Z,1.10
2023-05-19T11:10:24.602Z,1.27
2023-05-19T11:12:52.243Z,1.20
2023-05-19T11:15:18.783Z,1.30
2023-05-19T11:17:48.643Z,1.20
2023-05-19T11:20:24.902Z,1.23
2023-05-19T11:23:03.728Z,1.00
2023-05-19T11:25:42.518Z,1.00
2023-05-19T11:28:10.520Z,1.00
2023-05-19T11:30:37.463Z,1.00
2023-05-19T11:33:04.559Z,1.10
2023-05-19T11:35:33.867Z,1.08
2023-05-19T11:38:01.756Z,1.20
2023-05-19T11:40:29.094Z,1.00
2023-05-19T11:42:55.820Z,1.20
2023-05-19T11:45:26.331Z,1.00
2023-05-19T11:50:26.937Z,0.98
2023-05-19T11:52:55.329Z,1.10
2023-05-19T11:55:22.334Z,0.90
2023-05-19T12:00:30.404Z,1.10
2023-05-19T12:02:57.673Z,1.10
2023-05-19T12:05:25.026Z,0.98
2023-05-19T12:07:52.419Z,1.00
2023-05-19T12:12:46.595Z,0.93
2023-05-19T12:15:14.482Z,0.85
2023-05-19T12:17:41.154Z,0.93
2023-05-19T12:20:08.130Z,0.90
2023-05-19T12:22:34.857Z,0.80
2023-05-19T12:25:01.906Z,0.90
2023-05-19T12:27:28.447Z,1.00
2023-05-19T12:29:55.703Z,0.93
2023-05-19T12:34:49.212Z,1.10
2023-05-19T12:37:15.729Z,1.10
2023-05-19T12:39:42.802Z,0.90
2023-05-19T12:42:10.134Z,1.00
2023-05-19T12:44:39.823Z,1.00
2023-05-19T12:47:07.148Z,0.93
2023-05-19T12:49:33.817Z,0.90
2023-05-19T12:52:07.219Z,1.05
2023-05-19T12:54:37.218Z,1.02
2023-05-19T12:57:05.668Z,1.00
2023-05-19T12:59:38.392Z,1.05
2023-05-19T13:02:06.567Z,1.10
2023-05-19T13:04:36.186Z,1.02
2023-05-19T13:07:03.006Z,1.10
2023-05-19T13:09:29.541Z,0.90
2023-05-19T13:11:56.215Z,1.10
2023-05-19T13:14:22.737Z,1.02
2023-05-19T13:16:49.367Z,1.00
2023-05-19T13:24:17.582Z,0.90
2023-05-19T13:26:44.149Z,1.10
2023-05-19T13:29:11.880Z,1.08
2023-05-19T13:31:38.623Z,1.00
2023-05-19T13:34:05.292Z,0.95
2023-05-19T13:36:33.315Z,1.00
2023-05-19T13:39:00.851Z,1.17
2023-05-19T13:41:29.460Z,1.10
2023-05-19T13:43:59.633Z,1.20
2023-05-19T13:46:36.694Z,0.95
2023-05-19T13:49:11.136Z,1.17
2023-05-19T13:51:37.710Z,1.20
2023-05-19T13:54:05.077Z,1.00
2023-05-19T13:56:31.920Z,0.90
2023-05-19T13:58:59.123Z,1.10
2023-05-19T14:03:53.560Z,1.02
2023-05-19T14:06:20.411Z,1.00
2023-05-19T14:08:47.170Z,1.00
2023-05-19T14:11:21.832Z,1.08
2023-05-19T14:13:52.516Z,1.00
2023-05-19T14:16:20.464Z,0.93
2023-05-19T14:18:53.432Z,1.00
2023-05-19T14:21:21.385Z,1.20
2023-05-19T14:23:47.950Z,1.10
2023-05-19T14:26:21.838Z,1.00
2023-05-19T14:28:50.479Z,1.10
2023-05-19T14:31:17.077Z,0.90
2023-05-19T14:33:43.652Z,1.00
2023-05-19T14:36:11.144Z,0.90
2023-05-19T14:38:37.732Z,1.10
2023-05-19T14:41:04.359Z,0.95
2023-05-19T14:43:31.165Z,1.00
2023-05-19T14:45:57.714Z,1.00
2023-05-19T14:48:24.227Z,1.00
2023-05-19T14:50:50.936Z,0.93
2023-05-19T14:53:17.460Z,1.10
2023-05-19T14:55:44.013Z,1.00
2023-05-19T14:58:26.860Z,1.10
2023-05-19T15:00:53.963Z,1.10
2023-05-19T15:03:20.857Z,0.90
2023-05-19T15:05:47.553Z,1.02
2023-05-19T15:08:14.032Z,0.98
2023-05-19T15:10:40.706Z,1.00
2023-05-19T15:13:07.329Z,1.10
2023-05-19T15:15:33.905Z,1.00
2023-05-19T15:18:00.601Z,1.05
2023-05-19T15:20:28.839Z,1.15
2023-05-19T15:22:56.107Z,1.00
2023-05-19T15:25:22.619Z,1.00
2023-05-19T15:27:49.135Z,1.10
2023-05-19T15:30:16.236Z,1.10
2023-05-19T15:32:43.230Z,1.00
2023-05-19T15:35:10.118Z,1.00
2023-05-19T15:37:36.633Z,1.17
2023-05-19T15:40:06.396Z,1.10
2023-05-19T15:42:33.013Z,1.10
2023-05-19T15:44:59.682Z,1.10
2023-05-19T15:47:26.200Z,1.00
2023-05-19T15:49:52.802Z,1.00
2023-05-19T15:52:19.451Z,1.10
2023-05-19T15:54:46.710Z,1.10
2023-05-19T15:59:40.181Z,1.10
2023-05-19T16:02:06.792Z,1.17
2023-05-19T16:04:33.576Z,1.20
2023-05-19T16:07:00.158Z,1.08
2023-05-19T16:09:26.756Z,1.10
2023-05-19T16:11:53.244Z,0.93
2023-05-19T16:14:19.940Z,1.00
2023-05-19T16:16:46.493Z,1.02
2023-05-19T16:19:13.172Z,1.20
2023-05-19T16:21:39.763Z,1.10
2023-05-19T16:24:06.389Z,1.00
2023-05-19T16:26:34.369Z,1.02
2023-05-19T16:29:00.894Z,0.90
2023-05-19T16:31:27.700Z,1.10
2023-05-19T16:33:54.275Z,1.00
2023-05-19T16:36:22.755Z,1.10
2023-05-19T16:38:49.357Z,1.00
2023-05-19T16:41:15.962Z,0.95
2023-05-19T16:43:42.518Z,0.93
2023-05-19T16:46:12.380Z,1.17
2023-05-19T16:48:39.118Z,1.00
2023-05-19T16:51:05.718Z,1.20
2023-05-19T16:53:32.978Z,1.20
2023-05-19T16:58:29.598Z,1.05
2023-05-19T17:00:57.848Z,1.23
2023-05-19T17:03:24.502Z,1.20
2023-05-19T17:05:51.296Z,1.20
2023-05-19T17:08:17.875Z,1.30
2023-05-19T17:10:44.921Z,1.10
2023-05-19T17:13:11.771Z,1.20
2023-05-19T17:15:38.798Z,1.25
2023-05-19T17:18:06.117Z,1.15
2023-05-19T17:20:33.192Z,1.20
2023-05-19T17:22:59.808Z,1.15
2023-05-19T17:25:26.324Z,1.20
2023-05-19T17:27:52.896Z,1.30
2023-05-19T17:30:19.526Z,1.30
2023-05-19T17:32:46.304Z,1.20
2023-05-19T17:35:12.872Z,1.25
2023-05-19T17:37:39.418Z,1.20
2023-05-19T17:40:08.857Z,1.42
2023-05-19T17:42:35.499Z,1.20
2023-05-19T17:45:04.362Z,1.10
2023-05-19T17:47:31.040Z,1.30
2023-05-19T17:49:57.564Z,1.02
2023-05-19T17:52:25.774Z,1.15
2023-05-19T17:54:52.647Z,1.10
2023-05-19T17:57:20.117Z,1.20
2023-05-19T18:02:13.393Z,1.10
2023-05-19T18:04:40.709Z,1.10
2023-05-19T18:07:09.314Z,1.20
2023-05-19T18:09:41.124Z,1.10
2023-05-19T18:12:08.031Z,1.10
2023-05-19T18:14:34.568Z,1.25
2023-05-19T18:17:01.217Z,1.20
2023-05-19T18:19:27.908Z,1.40
2023-05-19T18:21:54.576Z,1.38
2023-05-19T18:24:24.127Z,1.17
2023-05-19T18:26:50.773Z,1.15
2023-05-19T18:29:17.243Z,1.20
2023-05-19T18:31:43.844Z,1.30
2023-05-19T18:34:10.456Z,1.10
2023-05-19T18:36:37.059Z,1.17
2023-05-19T18:39:04.660Z,1.17
2023-05-19T18:41:32.062Z,1.30
2023-05-19T18:43:58.640Z,1.20
2023-05-19T18:46:25.295Z,1.40
2023-05-19T18:48:51.859Z,1.40
2023-05-19T18:51:19.894Z,1.20
2023-05-19T18:53:50.203Z,1.10
2023-05-19T18:56:26.657Z,1.20
2023-05-19T18:58:53.992Z,1.40
2023-05-19T19:01:20.611Z,1.10
2023-05-19T19:03:49.181Z,1.10
2023-05-19T19:06:20.704Z,1.10
2023-05-19T19:08:47.408Z,1.42
2023-05-19T19:11:13.941Z,1.30
2023-05-19T19:13:40.625Z,1.20
2023-05-19T19:16:07.239Z,1.20
2023-05-19T19:18:35.677Z,1.17
2023-05-19T19:21:05.960Z,1.30
2023-05-19T19:23:32.976Z,1.05
2023-05-19T19:25:59.717Z,1.10
2023-05-19T19:28:26.507Z,1.30
2023-05-19T19:30:53.082Z,1.10
2023-05-19T19:33:19.634Z,1.10
2023-05-19T19:35:49.097Z,1.30
2023-05-19T19:38:15.868Z,1.10
2023-05-19T19:40:42.510Z,1.23
2023-05-19T19:43:09.000Z,1.30
2023-05-19T19:45:39.211Z,1.30
2023-05-19T19:48:07.030Z,1.00
2023-05-19T19:50:34.531Z,1.10
2023-05-19T19:53:01.398Z,1.25
2023-05-19T19:55:28.839Z,1.10
2023-05-19T19:57:55.440Z,1.30
2023-05-19T20:00:22.089Z,1.00
2023-05-19T20:03:03.646Z,1.50
2023-05-19T20:05:31.629Z,1.30
2023-05-19T20:07:58.502Z,1.05
2023-05-19T20:10:25.165Z,1.10
2023-05-19T20:12:52.074Z,1.00
2023-05-19T20:15:18.816Z,1.30
2023-05-19T20:17:45.964Z,1.20
2023-05-19T20:20:12.737Z,1.00
2023-05-19T20:22:39.246Z,1.20
2023-05-19T20:25:06.042Z,1.10
2023-05-19T20:27:32.638Z,1.10
2023-05-19T20:29:59.185Z,1.10
2023-05-19T20:32:25.925Z,1.13
2023-05-19T20:34:52.592Z,1.27
2023-05-19T20:37:19.171Z,1.20
2023-05-19T20:39:45.705Z,1.10
2023-05-19T20:42:12.294Z,1.13
2023-05-19T20:44:38.860Z,1.05
2023-05-19T20:47:08.066Z,1.40
2023-05-19T20:49:34.813Z,1.10
2023-05-19T20:52:01.368Z,1.10
2023-05-19T20:54:27.902Z,1.27
2023-05-19T20:56:54.487Z,1.13
2023-05-19T20:59:21.104Z,1.30
2023-05-19T21:01:48.140Z,1.20
2023-05-19T21:04:14.852Z,1.20
2023-05-19T21:06:41.469Z,1.10
2023-05-19T21:09:08.015Z,1.10
2023-05-19T21:11:34.525Z,1.40
2023-05-19T21:14:06.764Z,1.35
2023-05-19T21:16:34.177Z,1.00
2023-05-19T21:19:01.848Z,1.13
2023-05-19T21:21:28.568Z,1.35
2023-05-19T21:23:55.098Z,1.02
2023-05-19T21:26:22.072Z,1.30
2023-05-19T21:28:48.667Z,1.30
2023-05-19T21:31:15.372Z,1.10
2023-05-19T21:33:42.181Z,1.30
2023-05-19T21:36:08.715Z,1.50
2023-05-19T21:38:35.268Z,1.20
2023-05-19T21:41:01.897Z,1.30
2023-05-19T21:43:28.518Z,1.38
2023-05-19T21:45:55.408Z,1.20
2023-05-19T21:48:21.916Z,1.30
2023-05-19T21:50:57.765Z,1.20
2023-05-19T21:53:24.427Z,1.30
2023-05-19T21:55:51.057Z,1.10
2023-05-19T21:58:18.267Z,1.20
2023-05-19T22:00:51.045Z,1.30
2023-05-19T22:03:17.795Z,1.20
2023-05-19T22:05:51.757Z,1.50
2023-05-19T22:08:19.218Z,1.20
2023-05-19T22:13:12.548Z,1.20
2023-05-19T22:15:39.581Z,1.20
2023-05-19T22:18:06.908Z,1.23
2023-05-19T22:23:03.700Z,1.20
2023-05-19T22:25:30.418Z,1.40
2023-05-19T22:27:56.998Z,1.20
2023-05-19T22:30:23.546Z,1.60
2023-05-19T22:32:50.238Z,1.38
2023-05-19T22:35:17.768Z,1.50
2023-05-19T22:40:11.143Z,1.40
2023-05-19T22:42:37.653Z,1.52
2023-05-19T22:45:04.407Z,1.30
2023-05-19T22:47:30.975Z,1.40
2023-05-19T22:49:57.540Z,1.30
2023-05-19T22:52:24.093Z,1.50
2023-05-19T22:54:50.641Z,1.30
2023-05-19T22:57:17.379Z,1.30
2023-05-19T22:59:43.838Z,1.30
2023-05-19T23:02:10.274Z,1.23
2023-05-19T23:04:36.900Z,1.42
2023-05-19T23:07:03.532Z,1.60
2023-05-19T23:09:30.542Z,1.27
2023-05-19T23:11:57.585Z,1.30
2023-05-19T23:14:25.857Z,1.30
2023-05-19T23:16:52.349Z,1.30
2023-05-19T23:19:20.716Z,1.38
2023-05-19T23:21:48.974Z,1.50
2023-05-19T23:24:16.047Z,1.40
2023-05-19T23:26:44.096Z,1.60
2023-05-19T23:29:11.737Z,1.20
2023-05-19T23:31:38.724Z,1.30
2023-05-19T23:34:05.520Z,1.40
2023-05-19T23:36:32.161Z,1.27
2023-05-19T23:38:59.983Z,1.30
2023-05-19T23:41:26.546Z,1.40
2023-05-19T23:43:53.042Z,1.50
2023-05-19T23:46:19.566Z,1.40
2023-05-19T23:48:46.826Z,1.50
2023-05-19T23:51:13.358Z,1.50
2023-05-19T23:53:39.823Z,1.60
2023-05-19T23:56:06.577Z,1.40
2023-05-19T23:58:33.109Z,1.50
